| time (UTC) | temp C | wind direction | speed KPH | gust KPH | rain 1hr cm | rain 24hr cm | rain mn cm | humidity % | barometer mb |
| 20260508215101 | 21 | 127 | 0.0 | 0.0 | 0.00 | 0.00 | 0.00 | 51 | 1014.9 |
| 20260508214558 | 21 | 145 | 1.6 | 1.6 | 0.00 | 0.00 | 0.00 | 51 | 1014.9 |
| 20260508214055 | 22 | 150 | 0.0 | 4.8 | 0.00 | 0.00 | 0.00 | 50 | 1015.0 |
| 20260508213552 | 22 | 160 | 0.0 | 1.6 | 0.00 | 0.00 | 0.00 | 46 | 1014.8 |
| 20260508213048 | 22 | 118 | 1.6 | 1.6 | 0.00 | 0.00 | 0.00 | 45 | 1015.0 |
| 20260508212545 | 22 | 123 | 1.6 | 3.2 | 0.00 | 0.00 | 0.00 | 43 | 1014.9 |
| 20260508212041 | 22 | 138 | 0.0 | 1.6 | 0.00 | 0.00 | 0.00 | 48 | 1014.9 |
| 20260508211537 | 22 | 161 | 1.6 | 3.2 | 0.00 | 0.00 | 0.00 | 51 | 1015.1 |
| 20260508211033 | 22 | 133 | 0.0 | 3.2 | 0.00 | 0.00 | 0.00 | 45 | 1014.8 |
| 20260508210530 | 21 | 153 | 0.0 | 0.0 | 0.00 | 0.00 | 0.00 | 50 | 1014.7 |
| 20260508210028 | 22 | 159 | 0.0 | 1.6 | 0.00 | 0.00 | 0.00 | 48 | 1014.7 |
| 20260508205524 | 22 | 148 | 0.0 | 1.6 | 0.00 | 0.00 | 0.00 | 47 | 1014.9 |
| 20260508205020 | 22 | 139 | 0.0 | 1.6 | 0.00 | 0.00 | 0.00 | 46 | 1014.8 |
| 20260508204518 | 22 | 158 | 1.6 | 3.2 | 0.00 | 0.00 | 0.00 | 47 | 1014.8 |
| 20260508204013 | 22 | 150 | 0.0 | 1.6 | 0.00 | 0.00 | 0.00 | 46 | 1015.2 |
| 20260508203509 | 22 | 149 | 1.6 | 1.6 | 0.00 | 0.00 | 0.00 | 45 | 1015.0 |
| 20260508203005 | 22 | 70 | 0.0 | 1.6 | 0.00 | 0.00 | 0.00 | 42 | 1015.1 |
| 20260508202503 | 23 | 156 | 1.6 | 3.2 | 0.00 | 0.00 | 0.00 | 42 | 1015.1 |
| 20260508201959 | 22 | 147 | 0.0 | 1.6 | 0.00 | 0.00 | 0.00 | 40 | 1015.1 |
| 20260508201456 | 22 | 120 | 0.0 | 1.6 | 0.00 | 0.00 | 0.00 | 42 | 1015.0 |
| 20260508200953 | 22 | 124 | 1.6 | 1.6 | 0.00 | 0.00 | 0.00 | 44 | 1015.2 |
| 20260508200450 | 22 | 140 | 0.0 | 1.6 | 0.00 | 0.00 | 0.00 | 45 | 1015.2 |
| 20260508195944 | 22 | 121 | 0.0 | 3.2 | 0.00 | 0.00 | 0.00 | 46 | 1015.3 |
| 20260508195442 | 22 | 141 | 0.0 | 1.6 | 0.00 | 0.00 | 0.00 | 44 | 1015.4 |
| 20260508194938 | 22 | 154 | 0.0 | 1.6 | 0.00 | 0.00 | 0.00 | 47 | 1015.6 |
| 20260508194436 | 23 | 152 | 0.0 | 3.2 | 0.00 | 0.00 | 0.00 | 41 | 1015.6 |
| 20260508193932 | 23 | 139 | 0.0 | 3.2 | 0.00 | 0.00 | 0.00 | 40 | 1015.4 |
| 20260508193430 | 22 | 124 | 0.0 | 4.8 | 0.00 | 0.00 | 0.00 | 43 | 1015.6 |
| 20260508192926 | 21 | 149 | 0.0 | 4.8 | 0.00 | 0.00 | 0.00 | 48 | 1015.8 |
| 20260508192423 | 21 | 135 | 0.0 | 1.6 | 0.00 | 0.00 | 0.00 | 45 | 1016.1 |
| 20260508191919 | 22 | 147 | 0.0 | 1.6 | 0.00 | 0.00 | 0.00 | 45 | 1016.3 |
| 20260508191417 | 22 | 94 | 1.6 | 3.2 | 0.00 | 0.00 | 0.00 | 41 | 1016.2 |
| 20260508190913 | 21 | 135 | 0.0 | 1.6 | 0.00 | 0.00 | 0.00 | 44 | 1016.3 |
| 20260508190411 | 21 | 130 | 0.0 | 3.2 | 0.00 | 0.00 | 0.00 | 47 | 1016.2 |
| 20260508185907 | 21 | 131 | 0.0 | 1.6 | 0.00 | 0.00 | 0.00 | 45 | 1016.4 |
| 20260508185405 | 21 | 141 | 0.0 | 1.6 | 0.00 | 0.00 | 0.00 | 47 | 1016.7 |
| 20260508184902 | 20 | 120 | 0.0 | 1.6 | 0.00 | 0.00 | 0.00 | 53 | 1016.7 |
| 20260508184359 | 20 | 115 | 0.0 | 1.6 | 0.00 | 0.00 | 0.00 | 47 | 1016.7 |
| 20260508183855 | 21 | 147 | 0.0 | 1.6 | 0.00 | 0.00 | 0.00 | 47 | 1016.9 |
| 20260508183352 | 22 | 33 | 3.2 | 4.8 | 0.00 | 0.00 | 0.00 | 43 | 1016.7 |
| 20260508182848 | 22 | 132 | 0.0 | 1.6 | 0.00 | 0.00 | 0.00 | 41 | 1016.9 |
| 20260508182345 | 21 | 96 | 3.2 | 4.8 | 0.00 | 0.00 | 0.00 | 47 | 1017.0 |
| 20260508181840 | 21 | 124 | 1.6 | 1.6 | 0.00 | 0.00 | 0.00 | 56 | 1017.2 |
| 20260508181337 | 21 | 130 | 0.0 | 1.6 | 0.00 | 0.00 | 0.00 | 45 | 1017.2 |
| 20260508180834 | 21 | 139 | 1.6 | 3.2 | 0.00 | 0.00 | 0.00 | 46 | 1017.1 |
| 20260508180331 | 22 | 119 | 1.6 | 1.6 | 0.00 | 0.00 | 0.00 | 43 | 1016.8 |
| 20260508175827 | 21 | 115 | 1.6 | 4.8 | 0.00 | 0.00 | 0.00 | 46 | 1017.1 |
| 20260508175324 | 22 | 38 | 3.2 | 3.2 | 0.00 | 0.00 | 0.00 | 46 | 1017.3 |
| 20260508174822 | 21 | 94 | 1.6 | 1.6 | 0.00 | 0.00 | 0.00 | 48 | 1017.4 |
| 20260508174319 | 21 | 145 | 0.0 | 1.6 | 0.00 | 0.00 | 0.00 | 47 | 1017.6 |
| 20260508173815 | 22 | 56 | 3.2 | 6.4 | 0.00 | 0.00 | 0.00 | 42 | 1017.5 |
| 20260508173313 | 22 | 134 | 1.6 | 1.6 | 0.00 | 0.00 | 0.00 | 43 | 1017.3 |
| 20260508172808 | 21 | 133 | 0.0 | 1.6 | 0.00 | 0.00 | 0.00 | 43 | 1017.6 |
| 20260508172307 | 22 | 144 | 0.0 | 1.6 | 0.00 | 0.00 | 0.00 | 43 | 1017.6 |
| 20260508171802 | 22 | 140 | 0.0 | 3.2 | 0.00 | 0.00 | 0.00 | 44 | 1017.5 |
| 20260508171258 | 22 | 138 | 0.0 | 1.6 | 0.00 | 0.00 | 0.00 | 44 | 1017.8 |
| 20260508170755 | 21 | 148 | 0.0 | 1.6 | 0.00 | 0.00 | 0.00 | 46 | 1018.1 |
| 20260508170253 | 20 | 127 | 1.6 | 1.6 | 0.00 | 0.00 | 0.00 | 54 | 1017.9 |
| 20260508165749 | 20 | 130 | 0.0 | 1.6 | 0.00 | 0.00 | 0.00 | 54 | 1018.1 |
| 20260508165247 | 20 | 161 | 0.0 | 3.2 | 0.00 | 0.00 | 0.00 | 49 | 1018.1 |
| 20260508164743 | 20 | 103 | 0.0 | 3.2 | 0.00 | 0.00 | 0.00 | 44 | 1018.1 |
| 20260508164240 | 20 | 44 | 3.2 | 4.8 | 0.00 | 0.00 | 0.00 | 55 | 1018.3 |
| 20260508163738 | 18 | 117 | 0.0 | 3.2 | 0.00 | 0.00 | 0.00 | 55 | 1018.6 |
| 20260508163235 | 18 | 143 | 1.6 | 1.6 | 0.00 | 0.00 | 0.00 | 52 | 1018.5 |
| 20260508162731 | 18 | 136 | 0.0 | 0.0 | 0.00 | 0.00 | 0.00 | 51 | 1018.6 |
| 20260508162228 | 19 | 114 | 0.0 | 9.7 | 0.00 | 0.00 | 0.00 | 47 | 1018.4 |
| 20260508161725 | 20 | 100 | 1.6 | 4.8 | 0.00 | 0.00 | 0.00 | 47 | 1018.5 |
| 20260508161222 | 20 | 35 | 6.4 | 11.3 | 0.00 | 0.00 | 0.00 | 44 | 1018.7 |
| 20260508160720 | 19 | 28 | 6.4 | 6.4 | 0.00 | 0.00 | 0.00 | 48 | 1018.6 |
| 20260508160218 | 18 | 95 | 0.0 | 3.2 | 0.00 | 0.00 | 0.00 | 49 | 1019.0 |
| 20260508155714 | 18 | 39 | 3.2 | 4.8 | 0.00 | 0.00 | 0.00 | 49 | 1019.0 |
| 20260508155212 | 18 | 118 | 0.0 | 0.0 | 0.00 | 0.00 | 0.00 | 53 | 1019.0 |
| 20260508154708 | 18 | 143 | 0.0 | 1.6 | 0.00 | 0.00 | 0.00 | 53 | 1019.1 |
| 20260508154206 | 18 | 159 | 1.6 | 3.2 | 0.00 | 0.00 | 0.00 | 47 | 1018.7 |
| 20260508153702 | 20 | 160 | 1.6 | 1.6 | 0.00 | 0.00 | 0.00 | 50 | 1018.9 |
| 20260508153159 | 20 | 117 | 1.6 | 4.8 | 0.00 | 0.00 | 0.00 | 47 | 1019.2 |
| 20260508152655 | 20 | 39 | 3.2 | 4.8 | 0.00 | 0.00 | 0.00 | 48 | 1019.2 |
| 20260508152152 | 19 | 68 | 4.8 | 6.4 | 0.00 | 0.00 | 0.00 | 49 | 1019.2 |
| 20260508151648 | 18 | 119 | 1.6 | 11.3 | 0.00 | 0.00 | 0.00 | 56 | 1019.2 |
| 20260508151145 | 18 | 142 | 1.6 | 3.2 | 0.00 | 0.00 | 0.00 | 51 | 1019.1 |
| 20260508150642 | 18 | 303 | 4.8 | 6.4 | 0.00 | 0.00 | 0.00 | 48 | 1019.1 |
| 20260508150138 | 18 | 73 | 1.6 | 3.2 | 0.00 | 0.00 | 0.00 | 50 | 1019.2 |
| 20260508145634 | 18 | 126 | 3.2 | 3.2 | 0.00 | 0.00 | 0.00 | 49 | 1019.2 |
| 20260508145131 | 18 | 310 | 1.6 | 1.6 | 0.00 | 0.00 | 0.00 | 51 | 1019.2 |
| 20260508144628 | 18 | 29 | 3.2 | 4.8 | 0.00 | 0.00 | 0.00 | 44 | 1019.2 |
| 20260508144126 | 18 | 140 | 1.6 | 4.8 | 0.00 | 0.00 | 0.00 | 46 | 1019.2 |
| 20260508143623 | 18 | 125 | 0.0 | 1.6 | 0.00 | 0.00 | 0.00 | 47 | 1019.5 |
| 20260508143120 | 19 | 172 | 4.8 | 6.4 | 0.00 | 0.00 | 0.00 | 46 | 1019.3 |
| 20260508142616 | 18 | 152 | 1.6 | 4.8 | 0.00 | 0.00 | 0.00 | 49 | 1019.5 |
| 20260508142113 | 18 | 138 | 1.6 | 4.8 | 0.00 | 0.00 | 0.00 | 49 | 1019.6 |
| 20260508141610 | 17 | 125 | 0.0 | 3.2 | 0.00 | 0.00 | 0.00 | 53 | 1019.4 |
| 20260508141108 | 17 | 131 | 1.6 | 3.2 | 0.00 | 0.00 | 0.00 | 54 | 1019.3 |
| 20260508140604 | 16 | 121 | 0.0 | 1.6 | 0.00 | 0.00 | 0.00 | 56 | 1019.6 |
| 20260508135556 | 16 | 80 | 1.6 | 3.2 | 0.00 | 0.00 | 0.00 | 54 | 1019.6 |
| 20260508135053 | 16 | 122 | 0.0 | 0.0 | 0.00 | 0.00 | 0.00 | 54 | 1019.5 |
| 20260508134550 | 15 | 106 | 0.0 | 1.6 | 0.00 | 0.00 | 0.00 | 56 | 1019.5 |
| 20260508134047 | 15 | 110 | 1.6 | 3.2 | 0.00 | 0.00 | 0.00 | 57 | 1019.7 |
| 20260508133543 | 15 | 133 | 1.6 | 3.2 | 0.00 | 0.00 | 0.00 | 59 | 1019.7 |
| 20260508133041 | 15 | 113 | 1.6 | 6.4 | 0.00 | 0.00 | 0.00 | 60 | 1019.7 |
| 20260508132539 | 14 | 169 | 1.6 | 3.2 | 0.00 | 0.00 | 0.00 | 62 | 1019.5 |
| 20260508132035 | 14 | 162 | 0.0 | 1.6 | 0.00 | 0.00 | 0.00 | 65 | 1019.4 |
| 20260508131530 | 13 | 162 | 1.6 | 1.6 | 0.00 | 0.00 | 0.00 | 68 | 1019.4 |
| 20260508131027 | 13 | 149 | 1.6 | 3.2 | 0.00 | 0.00 | 0.00 | 67 | 1019.4 |
| 20260508130525 | 13 | 153 | 0.0 | 1.6 | 0.00 | 0.00 | 0.00 | 71 | 1019.3 |
| 20260508130021 | 13 | 128 | 1.6 | 1.6 | 0.00 | 0.00 | 0.00 | 74 | 1019.4 |
| 20260508125516 | 13 | 158 | 0.0 | 1.6 | 0.00 | 0.00 | 0.00 | 74 | 1019.3 |
| 20260508125015 | 12 | 108 | 0.0 | 1.6 | 0.00 | 0.00 | 0.00 | 74 | 1019.2 |
| 20260508124512 | 12 | 120 | 0.0 | 1.6 | 0.00 | 0.00 | 0.00 | 74 | 1019.4 |
| 20260508124009 | 12 | 146 | 0.0 | 1.6 | 0.00 | 0.00 | 0.00 | 78 | 1019.1 |
| 20260508123508 | 11 | 142 | 0.0 | 0.0 | 0.00 | 0.00 | 0.00 | 80 | 1019.3 |
| 20260508123004 | 11 | 147 | 0.0 | 0.0 | 0.00 | 0.00 | 0.00 | 83 | 1019.3 |
| 20260508122501 | 11 | 147 | 0.0 | 0.0 | 0.00 | 0.00 | 0.00 | 85 | 1018.9 |
| 20260508121958 | 11 | 147 | 0.0 | 1.6 | 0.00 | 0.00 | 0.00 | 85 | 1018.9 |
| 20260508121456 | 10 | 150 | 0.0 | 1.6 | 0.00 | 0.00 | 0.00 | 88 | 1019.0 |
| 20260508120954 | 10 | 150 | 1.6 | 1.6 | 0.00 | 0.00 | 0.00 | 88 | 1018.7 |
| 20260508120451 | 10 | 150 | 0.0 | 1.6 | 0.00 | 0.00 | 0.00 | 87 | 1018.7 |
| 20260508115949 | 10 | 158 | 0.0 | 1.6 | 0.00 | 0.00 | 0.00 | 88 | 1019.0 |
| 20260508115447 | 10 | 154 | 0.0 | 1.6 | 0.00 | 0.00 | 0.00 | 90 | 1018.7 |
| 20260508114943 | 9 | 154 | 0.0 | 0.0 | 0.00 | 0.00 | 0.00 | 93 | 1018.9 |
| 20260508114440 | 8 | 154 | 0.0 | 0.0 | 0.00 | 0.00 | 0.00 | 94 | 1018.7 |
| 20260508113936 | 8 | 154 | 0.0 | 0.0 | 0.00 | 0.00 | 0.00 | 95 | 1018.3 |
| 20260508113434 | 8 | 154 | 0.0 | 0.0 | 0.00 | 0.00 | 0.00 | 95 | 1018.5 |
| 20260508112931 | 8 | 154 | 0.0 | 0.0 | 0.00 | 0.00 | 0.00 | 95 | 1018.4 |
| 20260508112428 | 8 | 155 | 0.0 | 3.2 | 0.00 | 0.00 | 0.00 | 96 | 1018.4 |
| 20260508111924 | 8 | 92 | 0.0 | 0.0 | 0.00 | 0.00 | 0.00 | 95 | 1018.2 |
| 20260508111422 | 7 | 90 | 0.0 | 3.2 | 0.00 | 0.00 | 0.00 | 95 | 1018.1 |
| 20260508110919 | 7 | 123 | 0.0 | 0.0 | 0.00 | 0.00 | 0.00 | 95 | 1018.1 |
| 20260508110417 | 7 | 123 | 0.0 | 0.0 | 0.00 | 0.00 | 0.00 | 95 | 1018.2 |
| 20260508105916 | 7 | 123 | 0.0 | 0.0 | 0.00 | 0.00 | 0.00 | 95 | 1018.1 |
| 20260508105413 | 7 | 123 | 0.0 | 0.0 | 0.00 | 0.00 | 0.00 | 95 | 1017.9 |
| 20260508104910 | 7 | 123 | 0.0 | 0.0 | 0.00 | 0.00 | 0.00 | 95 | 1018.0 |
| 20260508104407 | 7 | 123 | 0.0 | 0.0 | 0.00 | 0.00 | 0.00 | 95 | 1017.7 |
| 20260508103904 | 7 | 123 | 0.0 | 0.0 | 0.00 | 0.00 | 0.00 | 95 | 1017.8 |
| 20260508103401 | 7 | 123 | 0.0 | 0.0 | 0.00 | 0.00 | 0.00 | 95 | 1017.6 |
| 20260508102858 | 7 | 122 | 0.0 | 0.0 | 0.00 | 0.00 | 0.00 | 95 | 1017.5 |
| 20260508102356 | 7 | 122 | 0.0 | 0.0 | 0.00 | 0.00 | 0.00 | 95 | 1017.5 |
| 20260508101853 | 8 | 124 | 0.0 | 0.0 | 0.00 | 0.00 | 0.00 | 95 | 1017.4 |
| 20260508101350 | 7 | 124 | 0.0 | 1.6 | 0.00 | 0.00 | 0.00 | 95 | 1017.4 |
| 20260508100848 | 7 | 107 | 0.0 | 0.0 | 0.00 | 0.00 | 0.00 | 95 | 1017.3 |
| 20260508100347 | 7 | 153 | 0.0 | 1.6 | 0.00 | 0.00 | 0.00 | 95 | 1017.3 |
| 20260508095842 | 7 | 152 | 0.0 | 1.6 | 0.00 | 0.00 | 0.00 | 94 | 1017.1 |
| 20260508095340 | 7 | 143 | 1.6 | 1.6 | 0.00 | 0.00 | 0.00 | 94 | 1017.1 |
| 20260508094836 | 7 | 138 | 0.0 | 0.0 | 0.00 | 0.00 | 0.00 | 94 | 1017.1 |
| 20260508094333 | 7 | 154 | 0.0 | 1.6 | 0.00 | 0.00 | 0.00 | 94 | 1017.1 |
| 20260508093830 | 7 | 139 | 0.0 | 1.6 | 0.00 | 0.00 | 0.00 | 94 | 1017.0 |
| 20260508093328 | 7 | 139 | 0.0 | 0.0 | 0.00 | 0.00 | 0.00 | 94 | 1017.1 |
| 20260508092825 | 8 | 138 | 1.6 | 1.6 | 0.00 | 0.00 | 0.00 | 93 | 1017.1 |
| 20260508092323 | 8 | 172 | 0.0 | 1.6 | 0.00 | 0.00 | 0.00 | 94 | 1016.9 |
| 20260508091821 | 8 | 173 | 0.0 | 1.6 | 0.00 | 0.00 | 0.00 | 93 | 1017.1 |
| 20260508091317 | 8 | 173 | 0.0 | 1.6 | 0.00 | 0.00 | 0.00 | 93 | 1016.8 |
| 20260508090815 | 8 | 138 | 0.0 | 1.6 | 0.00 | 0.00 | 0.00 | 93 | 1017.0 |
| 20260508090314 | 8 | 138 | 0.0 | 1.6 | 0.00 | 0.00 | 0.00 | 94 | 1016.9 |
| 20260508085809 | 8 | 138 | 0.0 | 0.0 | 0.00 | 0.00 | 0.00 | 94 | 1016.7 |
| 20260508085307 | 8 | 138 | 0.0 | 1.6 | 0.00 | 0.00 | 0.00 | 94 | 1016.7 |
| 20260508084802 | 8 | 114 | 0.0 | 0.0 | 0.00 | 0.00 | 0.00 | 93 | 1016.7 |
| 20260508084259 | 8 | 113 | 0.0 | 1.6 | 0.00 | 0.00 | 0.00 | 93 | 1016.5 |
| 20260508083757 | 8 | 110 | 1.6 | 1.6 | 0.00 | 0.00 | 0.00 | 93 | 1016.7 |
| 20260508083254 | 8 | 161 | 0.0 | 0.0 | 0.00 | 0.00 | 0.00 | 93 | 1016.7 |
| 20260508082753 | 8 | 161 | 0.0 | 0.0 | 0.00 | 0.00 | 0.00 | 93 | 1016.5 |
| 20260508082252 | 8 | 161 | 0.0 | 1.6 | 0.00 | 0.00 | 0.00 | 93 | 1016.5 |
| 20260508081749 | 8 | 161 | 0.0 | 0.0 | 0.00 | 0.00 | 0.00 | 92 | 1016.5 |
| 20260508081245 | 8 | 161 | 0.0 | 0.0 | 0.00 | 0.00 | 0.00 | 92 | 1016.5 |
| 20260508080742 | 8 | 163 | 0.0 | 1.6 | 0.00 | 0.00 | 0.00 | 92 | 1016.2 |
| 20260508080240 | 8 | 163 | 0.0 | 0.0 | 0.00 | 0.00 | 0.00 | 92 | 1016.4 |
| 20260508075737 | 8 | 165 | 0.0 | 3.2 | 0.00 | 0.00 | 0.00 | 92 | 1016.5 |
| 20260508075233 | 8 | 152 | 0.0 | 1.6 | 0.00 | 0.00 | 0.00 | 92 | 1016.3 |
| 20260508074731 | 8 | 113 | 0.0 | 0.0 | 0.00 | 0.00 | 0.00 | 91 | 1016.2 |
| 20260508074229 | 9 | 106 | 1.6 | 1.6 | 0.00 | 0.00 | 0.00 | 90 | 1016.2 |
| 20260508073725 | 9 | 108 | 0.0 | 3.2 | 0.00 | 0.00 | 0.00 | 89 | 1016.1 |
| 20260508073223 | 9 | 108 | 0.0 | 1.6 | 0.00 | 0.00 | 0.00 | 90 | 1016.1 |
| 20260508072719 | 9 | 158 | 0.0 | 1.6 | 0.00 | 0.00 | 0.00 | 91 | 1015.9 |
| 20260508072216 | 9 | 155 | 0.0 | 0.0 | 0.00 | 0.00 | 0.00 | 91 | 1015.9 |
| 20260508071713 | 9 | 155 | 0.0 | 0.0 | 0.00 | 0.00 | 0.00 | 91 | 1016.0 |
| 20260508071212 | 9 | 155 | 0.0 | 1.6 | 0.00 | 0.00 | 0.00 | 90 | 1016.0 |
| 20260508070709 | 9 | 155 | 0.0 | 0.0 | 0.00 | 0.00 | 0.00 | 90 | 1016.0 |
| 20260508070208 | 9 | 156 | 0.0 | 1.6 | 0.00 | 0.00 | 0.00 | 90 | 1015.8 |
| 20260508065704 | 10 | 157 | 0.0 | 1.6 | 0.00 | 0.00 | 0.00 | 89 | 1016.0 |
| 20260508065202 | 10 | 103 | 0.0 | 1.6 | 0.00 | 0.00 | 0.00 | 88 | 1015.6 |
| 20260508064700 | 10 | 143 | 0.0 | 1.6 | 0.00 | 0.00 | 0.00 | 88 | 1015.6 |
| 20260508064158 | 10 | 117 | 0.0 | 1.6 | 0.00 | 0.00 | 0.00 | 87 | 1015.5 |
| 20260508063655 | 10 | 142 | 0.0 | 0.0 | 0.00 | 0.00 | 0.00 | 86 | 1015.5 |
| 20260508063153 | 10 | 143 | 1.6 | 1.6 | 0.00 | 0.00 | 0.00 | 86 | 1015.6 |
| 20260508062650 | 10 | 139 | 0.0 | 0.0 | 0.00 | 0.00 | 0.00 | 85 | 1015.9 |
| 20260508062147 | 11 | 139 | 0.0 | 0.0 | 0.00 | 0.00 | 0.00 | 84 | 1015.9 |
| 20260508061643 | 11 | 139 | 0.0 | 1.6 | 0.00 | 0.00 | 0.00 | 82 | 1015.5 |
| 20260508061141 | 11 | 133 | 0.0 | 1.6 | 0.00 | 0.00 | 0.00 | 81 | 1015.5 |
| 20260508060638 | 11 | 145 | 1.6 | 3.2 | 0.00 | 0.00 | 0.00 | 80 | 1015.6 |
| 20260508060135 | 11 | 149 | 1.6 | 3.2 | 0.00 | 0.00 | 0.00 | 79 | 1015.6 |
| 20260508055630 | 11 | 140 | 1.6 | 1.6 | 0.00 | 0.00 | 0.00 | 77 | 1015.6 |
| 20260508055128 | 12 | 184 | 1.6 | 3.2 | 0.00 | 0.00 | 0.00 | 76 | 1015.8 |
| 20260508054624 | 12 | 133 | 3.2 | 3.2 | 0.00 | 0.00 | 0.00 | 74 | 1015.8 |
| 20260508054122 | 13 | 153 | 0.0 | 1.6 | 0.00 | 0.00 | 0.00 | 71 | 1015.8 |
| 20260508053618 | 12 | 151 | 3.2 | 4.8 | 0.00 | 0.00 | 0.00 | 68 | 1015.8 |
| 20260508053116 | 12 | 176 | 3.2 | 4.8 | 0.00 | 0.00 | 0.00 | 70 | 1015.8 |
| 20260508052613 | 12 | 144 | 1.6 | 3.2 | 0.00 | 0.00 | 0.00 | 71 | 1015.8 |
| 20260508052110 | 12 | 136 | 0.0 | 1.6 | 0.00 | 0.00 | 0.00 | 73 | 1015.8 |
| 20260508051606 | 13 | 152 | 1.6 | 1.6 | 0.00 | 0.00 | 0.00 | 70 | 1015.8 |
| 20260508051102 | 12 | 189 | 1.6 | 4.8 | 0.00 | 0.00 | 0.00 | 71 | 1015.8 |
| 20260508050558 | 12 | 153 | 0.0 | 1.6 | 0.00 | 0.00 | 0.00 | 73 | 1015.5 |
| 20260508050056 | 12 | 156 | 0.0 | 1.6 | 0.00 | 0.00 | 0.00 | 72 | 1015.3 |
| 20260508045552 | 11 | 146 | 1.6 | 3.2 | 0.00 | 0.00 | 0.00 | 74 | 1015.8 |
| 20260508045050 | 11 | 156 | 1.6 | 1.6 | 0.00 | 0.00 | 0.00 | 77 | 1015.8 |
| 20260508044547 | 11 | 156 | 1.6 | 3.2 | 0.00 | 0.00 | 0.00 | 78 | 1015.3 |
| 20260508044043 | 11 | 147 | 1.6 | 1.6 | 0.00 | 0.00 | 0.00 | 78 | 1015.5 |
| 20260508043539 | 11 | 151 | 0.0 | 1.6 | 0.00 | 0.00 | 0.00 | 79 | 1015.4 |
| 20260508043037 | 11 | 154 | 3.2 | 4.8 | 0.00 | 0.00 | 0.00 | 79 | 1015.3 |
| 20260508042533 | 12 | 149 | 0.0 | 1.6 | 0.00 | 0.00 | 0.00 | 79 | 1015.4 |
| 20260508042031 | 12 | 157 | 0.0 | 1.6 | 0.00 | 0.00 | 0.00 | 77 | 1015.4 |
| 20260508041527 | 12 | 123 | 0.0 | 1.6 | 0.00 | 0.00 | 0.00 | 76 | 1015.0 |
| 20260508041024 | 12 | 152 | 1.6 | 3.2 | 0.00 | 0.00 | 0.00 | 76 | 1015.3 |
| 20260508040521 | 12 | 158 | 1.6 | 3.2 | 0.00 | 0.00 | 0.00 | 75 | 1015.4 |
| 20260508040018 | 13 | 150 | 1.6 | 1.6 | 0.00 | 1.40 | 1.40 | 70 | 1015.3 |
| 20260508035515 | 13 | 147 | 3.2 | 3.2 | 0.00 | 1.40 | 1.40 | 70 | 1015.2 |
| 20260508035012 | 13 | 156 | 0.0 | 3.2 | 0.00 | 1.40 | 1.40 | 68 | 1015.2 |
| 20260508034509 | 13 | 112 | 0.0 | 1.6 | 0.00 | 1.40 | 1.40 | 68 | 1015.4 |
| 20260508034006 | 13 | 136 | 3.2 | 4.8 | 0.00 | 1.40 | 1.40 | 70 | 1015.4 |
| 20260508033504 | 12 | 146 | 3.2 | 4.8 | 0.00 | 1.40 | 1.40 | 70 | 1015.3 |
| 20260508033001 | 13 | 153 | 0.0 | 1.6 | 0.00 | 1.40 | 1.40 | 72 | 1015.1 |
| 20260508032458 | 13 | 162 | 3.2 | 3.2 | 0.00 | 1.40 | 1.40 | 69 | 1015.3 |
| 20260508031955 | 13 | 112 | 3.2 | 4.8 | 0.00 | 1.40 | 1.40 | 70 | 1015.3 |
| 20260508031453 | 14 | 163 | 3.2 | 3.2 | 0.00 | 1.40 | 1.40 | 63 | 1015.2 |
| 20260508030948 | 13 | 135 | 3.2 | 3.2 | 0.00 | 1.40 | 1.40 | 69 | 1015.4 |
| 20260508030445 | 13 | 149 | 0.0 | 1.6 | 0.00 | 1.40 | 1.40 | 67 | 1015.4 |
| 20260508025943 | 14 | 174 | 1.6 | 3.2 | 0.00 | 1.40 | 1.40 | 62 | 1015.4 |
| 20260508025439 | 14 | 120 | 0.0 | 11.3 | 0.00 | 1.40 | 1.40 | 61 | 1015.3 |
| 20260508024936 | 14 | 162 | 1.6 | 4.8 | 0.00 | 1.40 | 1.40 | 65 | 1015.2 |
| 20260508024432 | 14 | 160 | 0.0 | 9.7 | 0.00 | 1.40 | 1.40 | 64 | 1015.2 |
| 20260508023929 | 14 | 140 | 3.2 | 9.7 | 0.00 | 1.40 | 1.40 | 61 | 1014.9 |
| 20260508023426 | 14 | 155 | 1.6 | 3.2 | 0.00 | 1.40 | 1.40 | 63 | 1015.1 |
| 20260508022923 | 13 | 148 | 1.6 | 3.2 | 0.00 | 1.40 | 1.40 | 62 | 1015.0 |
| 20260508022419 | 13 | 126 | 4.8 | 6.4 | 0.00 | 1.40 | 1.40 | 63 | 1015.0 |
| 20260508021916 | 13 | 140 | 0.0 | 4.8 | 0.00 | 1.40 | 1.40 | 67 | 1014.9 |
| 20260508021412 | 14 | 123 | 0.0 | 3.2 | 0.00 | 1.40 | 1.40 | 64 | 1014.8 |
| 20260508020908 | 14 | 118 | 3.2 | 3.2 | 0.00 | 1.40 | 1.40 | 63 | 1014.8 |
| 20260508020406 | 14 | 169 | 1.6 | 3.2 | 0.00 | 1.40 | 1.40 | 64 | 1014.7 |
| 20260508015903 | 14 | 132 | 1.6 | 1.6 | 0.00 | 1.40 | 1.40 | 66 | 1014.5 |
| 20260508015400 | 14 | 124 | 1.6 | 4.8 | 0.00 | 1.40 | 1.40 | 61 | 1014.3 |
| 20260508014856 | 15 | 113 | 1.6 | 4.8 | 0.00 | 1.40 | 1.40 | 60 | 1014.4 |
| 20260508014354 | 14 | 27 | 3.2 | 6.4 | 0.00 | 1.40 | 1.40 | 61 | 1014.2 |
| 20260508013849 | 14 | 130 | 3.2 | 6.4 | 0.00 | 1.40 | 1.40 | 60 | 1014.3 |
| 20260508013346 | 13 | 156 | 0.0 | 3.2 | 0.00 | 1.40 | 1.40 | 62 | 1014.3 |
| 20260508012843 | 14 | 116 | 0.0 | 1.6 | 0.00 | 1.40 | 1.40 | 66 | 1014.4 |
| 20260508012340 | 15 | 143 | 0.0 | 4.8 | 0.00 | 1.40 | 1.40 | 61 | 1014.2 |
| 20260508011838 | 14 | 142 | 0.0 | 4.8 | 0.00 | 1.40 | 1.40 | 60 | 1013.9 |
| 20260508011336 | 15 | 153 | 0.0 | 1.6 | 0.00 | 1.40 | 1.40 | 64 | 1013.8 |
| 20260508010832 | 15 | 149 | 0.0 | 1.6 | 0.00 | 1.40 | 1.40 | 62 | 1013.8 |
| 20260508010330 | 15 | 149 | 1.6 | 3.2 | 0.00 | 1.40 | 1.40 | 61 | 1013.6 |
| 20260508005827 | 15 | 195 | 1.6 | 6.4 | 0.00 | 1.40 | 1.40 | 61 | 1013.7 |
| 20260508005324 | 15 | 125 | 0.0 | 1.6 | 0.00 | 1.40 | 1.40 | 64 | 1013.6 |
| 20260508004820 | 15 | 121 | 0.0 | 3.2 | 0.00 | 1.40 | 1.40 | 67 | 1013.4 |
| 20260508004316 | 15 | 239 | 6.4 | 9.7 | 0.00 | 1.40 | 1.40 | 59 | 1013.2 |
| 20260508003812 | 15 | 142 | 0.0 | 3.2 | 0.00 | 1.40 | 1.40 | 62 | 1013.1 |
| 20260508003310 | 16 | 167 | 1.6 | 11.3 | 0.00 | 1.40 | 1.40 | 56 | 1013.2 |
| 20260508002807 | 16 | 151 | 3.2 | 4.8 | 0.00 | 1.40 | 1.40 | 57 | 1013.2 |
| 20260508002306 | 16 | 97 | 4.8 | 12.9 | 0.00 | 1.40 | 1.40 | 57 | 1013.2 |
| 20260508001800 | 16 | 103 | 1.6 | 16.1 | 0.00 | 1.40 | 1.40 | 57 | 1012.8 |
| 20260508001255 | 16 | 52 | 9.7 | 14.5 | 0.00 | 1.40 | 1.40 | 57 | 1012.8 |
| 20260508000752 | 16 | 11 | 6.4 | 11.3 | 0.00 | 1.40 | 1.40 | 58 | 1012.9 |
| 20260508000250 | 16 | 322 | 8.0 | 11.3 | 0.00 | 1.40 | 1.40 | 58 | 1012.6 |
| 20260507235745 | 16 | 354 | 4.8 | 24.1 | 0.00 | 1.40 | 1.40 | 57 | 1012.6 |
| 20260507235243 | 16 | 23 | 4.8 | 17.7 | 0.00 | 1.40 | 1.40 | 58 | 1012.6 |
| 20260507234740 | 16 | 137 | 1.6 | 9.7 | 0.00 | 1.40 | 1.40 | 59 | 1012.3 |
| 20260507234237 | 16 | 117 | 8.0 | 12.9 | 0.00 | 1.40 | 1.40 | 58 | 1012.2 |
| 20260507233733 | 17 | 349 | 6.4 | 16.1 | 0.00 | 1.40 | 1.40 | 58 | 1012.2 |
| 20260507233231 | 17 | 181 | 8.0 | 9.7 | 0.00 | 1.40 | 1.40 | 59 | 1012.1 |
| 20260507232728 | 17 | 96 | 4.8 | 11.3 | 0.00 | 1.40 | 1.40 | 58 | 1011.9 |
| 20260507232225 | 17 | 355 | 6.4 | 14.5 | 0.00 | 1.40 | 1.40 | 58 | 1012.0 |
| 20260507231721 | 17 | 29 | 8.0 | 17.7 | 0.00 | 1.40 | 1.40 | 57 | 1011.8 |
| 20260507231218 | 17 | 356 | 14.5 | 27.4 | 0.00 | 1.40 | 1.40 | 56 | 1011.9 |
| 20260507230715 | 18 | 9 | 16.1 | 29.0 | 0.00 | 1.40 | 1.40 | 55 | 1011.6 |
| 20260507230213 | 18 | 45 | 6.4 | 27.4 | 0.00 | 1.40 | 1.40 | 56 | 1011.6 |
| 20260507225711 | 18 | 318 | 8.0 | 24.1 | 0.00 | 1.40 | 1.40 | 56 | 1011.6 |
| 20260507225208 | 18 | 350 | 17.7 | 24.1 | 0.00 | 1.40 | 1.40 | 56 | 1011.5 |
| 20260507224705 | 18 | 9 | 8.0 | 38.6 | 0.00 | 1.40 | 1.40 | 56 | 1011.2 |
| 20260507224201 | 18 | 39 | 6.4 | 17.7 | 0.00 | 1.40 | 1.40 | 55 | 1011.2 |
| 20260507223657 | 18 | 94 | 8.0 | 20.9 | 0.00 | 1.40 | 1.40 | 55 | 1011.2 |
| 20260507223154 | 18 | 339 | 12.9 | 37.0 | 0.00 | 1.40 | 1.40 | 55 | 1011.0 |
| 20260507222651 | 19 | 277 | 8.0 | 27.4 | 0.00 | 1.40 | 1.40 | 55 | 1010.8 |
| 20260507222147 | 20 | 250 | 11.3 | 27.4 | 0.00 | 1.40 | 1.40 | 54 | 1010.8 |
| 20260507221644 | 20 | 20 | 8.0 | 22.5 | 0.00 | 1.40 | 1.40 | 55 | 1010.6 |
| 20260507221140 | 20 | 263 | 12.9 | 17.7 | 0.00 | 1.40 | 1.40 | 53 | 1010.2 |
| 20260507220637 | 21 | 267 | 11.3 | 29.0 | 0.00 | 1.40 | 1.40 | 54 | 1010.5 |
| 20260507220136 | 21 | 240 | 9.7 | 27.4 | 0.00 | 1.40 | 1.40 | 53 | 1010.2 |
| 20260507215631 | 21 | 178 | 3.2 | 11.3 | 0.00 | 1.40 | 1.40 | 53 | 1010.2 |
| 20260507215129 | 22 | 9 | 11.3 | 14.5 | 0.00 | 1.40 | 1.40 | 52 | 1010.1 |